sensor_id;sensor_type;location;lat;lon;timestamp;temperature;humidity
10447;DHT22;5271;44.422;26.092;2023-06-10T00:00:49;20.90;99.90
10447;DHT22;5271;44.422;26.092;2023-06-10T00:03:17;20.90;99.90
10447;DHT22;5271;44.422;26.092;2023-06-10T00:05:44;20.90;99.90
10447;DHT22;5271;44.422;26.092;2023-06-10T00:08:11;20.80;99.90
10447;DHT22;5271;44.422;26.092;2023-06-10T00:10:38;20.80;99.90
10447;DHT22;5271;44.422;26.092;2023-06-10T00:13:06;20.80;99.90
10447;DHT22;5271;44.422;26.092;2023-06-10T00:15:35;20.80;99.90
10447;DHT22;5271;44.422;26.092;2023-06-10T00:18:02;20.80;99.90
10447;DHT22;5271;44.422;26.092;2023-06-10T00:20:30;20.80;99.90
10447;DHT22;5271;44.422;26.092;2023-06-10T00:22:58;20.80;99.90
10447;DHT22;5271;44.422;26.092;2023-06-10T00:25:26;20.80;99.90
10447;DHT22;5271;44.422;26.092;2023-06-10T00:27:53;20.80;99.90
10447;DHT22;5271;44.422;26.092;2023-06-10T00:30:20;20.80;99.90
10447;DHT22;5271;44.422;26.092;2023-06-10T00:32:48;20.90;99.90
10447;DHT22;5271;44.422;26.092;2023-06-10T00:35:15;20.80;99.90
10447;DHT22;5271;44.422;26.092;2023-06-10T00:37:42;20.80;99.90
10447;DHT22;5271;44.422;26.092;2023-06-10T00:40:10;20.90;99.90
10447;DHT22;5271;44.422;26.092;2023-06-10T00:42:37;20.90;99.90
10447;DHT22;5271;44.422;26.092;2023-06-10T00:45:05;20.90;99.90
10447;DHT22;5271;44.422;26.092;2023-06-10T00:47:32;20.90;99.90
10447;DHT22;5271;44.422;26.092;2023-06-10T00:50:02;20.80;99.90
10447;DHT22;5271;44.422;26.092;2023-06-10T00:52:30;20.80;99.90
10447;DHT22;5271;44.422;26.092;2023-06-10T00:54:57;20.80;99.90
10447;DHT22;5271;44.422;26.092;2023-06-10T00:57:24;20.80;99.90
10447;DHT22;5271;44.422;26.092;2023-06-10T00:59:52;20.80;99.90
10447;DHT22;5271;44.422;26.092;2023-06-10T01:02:18;20.80;99.90
10447;DHT22;5271;44.422;26.092;2023-06-10T01:04:45;20.80;99.90
10447;DHT22;5271;44.422;26.092;2023-06-10T01:07:21;20.90;99.90
10447;DHT22;5271;44.422;26.092;2023-06-10T01:09:54;20.90;99.90
10447;DHT22;5271;44.422;26.092;2023-06-10T01:12:29;20.90;99.90
10447;DHT22;5271;44.422;26.092;2023-06-10T01:14:59;20.90;99.90
10447;DHT22;5271;44.422;26.092;2023-06-10T01:17:26;20.90;99.90
10447;DHT22;5271;44.422;26.092;2023-06-10T01:19:54;20.90;99.90
10447;DHT22;5271;44.422;26.092;2023-06-10T01:22:23;20.90;99.90
10447;DHT22;5271;44.422;26.092;2023-06-10T01:24:51;20.90;99.90
10447;DHT22;5271;44.422;26.092;2023-06-10T01:27:21;20.80;99.90
10447;DHT22;5271;44.422;26.092;2023-06-10T01:29:53;20.90;99.90
10447;DHT22;5271;44.422;26.092;2023-06-10T01:32:26;20.90;99.90
10447;DHT22;5271;44.422;26.092;2023-06-10T01:34:54;20.90;99.90
10447;DHT22;5271;44.422;26.092;2023-06-10T01:37:24;20.90;99.90
10447;DHT22;5271;44.422;26.092;2023-06-10T01:39:55;20.90;99.90
10447;DHT22;5271;44.422;26.092;2023-06-10T01:42:23;20.90;99.90
10447;DHT22;5271;44.422;26.092;2023-06-10T01:44:51;20.90;99.90
10447;DHT22;5271;44.422;26.092;2023-06-10T01:47:18;21.00;99.90
10447;DHT22;5271;44.422;26.092;2023-06-10T01:49:45;20.90;99.90
10447;DHT22;5271;44.422;26.092;2023-06-10T01:52:12;21.00;99.90
10447;DHT22;5271;44.422;26.092;2023-06-10T01:54:40;21.00;99.90
10447;DHT22;5271;44.422;26.092;2023-06-10T01:57:07;21.00;99.90
10447;DHT22;5271;44.422;26.092;2023-06-10T01:59:33;21.00;99.90
10447;DHT22;5271;44.422;26.092;2023-06-10T02:02:02;20.90;99.90
10447;DHT22;5271;44.422;26.092;2023-06-10T02:04:28;20.90;99.90
10447;DHT22;5271;44.422;26.092;2023-06-10T02:06:55;20.90;99.90
10447;DHT22;5271;44.422;26.092;2023-06-10T02:09:22;20.90;99.90
10447;DHT22;5271;44.422;26.092;2023-06-10T02:11:50;20.90;99.90
10447;DHT22;5271;44.422;26.092;2023-06-10T02:14:17;20.90;99.90
10447;DHT22;5271;44.422;26.092;2023-06-10T02:16:44;20.90;99.90
10447;DHT22;5271;44.422;26.092;2023-06-10T02:19:12;20.90;99.90
10447;DHT22;5271;44.422;26.092;2023-06-10T02:21:39;20.90;99.90
10447;DHT22;5271;44.422;26.092;2023-06-10T02:24:06;20.90;99.90
10447;DHT22;5271;44.422;26.092;2023-06-10T02:26:33;20.90;99.90
10447;DHT22;5271;44.422;26.092;2023-06-10T02:29:01;20.90;99.90
10447;DHT22;5271;44.422;26.092;2023-06-10T02:31:29;20.80;99.90
10447;DHT22;5271;44.422;26.092;2023-06-10T02:33:56;20.80;99.90
10447;DHT22;5271;44.422;26.092;2023-06-10T02:36:22;20.80;99.90
10447;DHT22;5271;44.422;26.092;2023-06-10T02:38:49;20.80;99.90
10447;DHT22;5271;44.422;26.092;2023-06-10T02:41:16;20.80;99.90
10447;DHT22;5271;44.422;26.092;2023-06-10T02:43:43;20.80;99.90
10447;DHT22;5271;44.422;26.092;2023-06-10T02:46:11;20.80;99.90
10447;DHT22;5271;44.422;26.092;2023-06-10T02:48:41;20.70;99.90
10447;DHT22;5271;44.422;26.092;2023-06-10T02:51:08;20.70;99.90
10447;DHT22;5271;44.422;26.092;2023-06-10T02:53:35;20.70;99.90
10447;DHT22;5271;44.422;26.092;2023-06-10T02:56:02;20.70;99.90
10447;DHT22;5271;44.422;26.092;2023-06-10T02:58:28;20.70;99.90
10447;DHT22;5271;44.422;26.092;2023-06-10T03:00:56;20.70;99.90
10447;DHT22;5271;44.422;26.092;2023-06-10T03:03:25;20.70;99.90
10447;DHT22;5271;44.422;26.092;2023-06-10T03:05:53;20.70;99.90
10447;DHT22;5271;44.422;26.092;2023-06-10T03:08:19;20.70;99.90
10447;DHT22;5271;44.422;26.092;2023-06-10T03:10:46;20.70;99.90
10447;DHT22;5271;44.422;26.092;2023-06-10T03:13:13;20.60;99.90
10447;DHT22;5271;44.422;26.092;2023-06-10T03:15:41;20.60;99.90
10447;DHT22;5271;44.422;26.092;2023-06-10T03:18:07;20.60;99.90
10447;DHT22;5271;44.422;26.092;2023-06-10T03:20:36;20.60;99.90
10447;DHT22;5271;44.422;26.092;2023-06-10T03:23:03;20.60;99.90
10447;DHT22;5271;44.422;26.092;2023-06-10T03:25:30;20.60;99.90
10447;DHT22;5271;44.422;26.092;2023-06-10T03:27:57;20.60;99.90
10447;DHT22;5271;44.422;26.092;2023-06-10T03:30:24;20.60;99.90
10447;DHT22;5271;44.422;26.092;2023-06-10T03:32:51;20.60;99.90
10447;DHT22;5271;44.422;26.092;2023-06-10T03:35:17;20.60;99.90
10447;DHT22;5271;44.422;26.092;2023-06-10T03:37:46;20.60;99.90
10447;DHT22;5271;44.422;26.092;2023-06-10T03:40:12;20.60;99.90
10447;DHT22;5271;44.422;26.092;2023-06-10T03:42:39;20.60;99.90
10447;DHT22;5271;44.422;26.092;2023-06-10T03:45:07;20.60;99.90
10447;DHT22;5271;44.422;26.092;2023-06-10T03:47:34;20.60;99.90
10447;DHT22;5271;44.422;26.092;2023-06-10T03:50:02;20.60;99.90
10447;DHT22;5271;44.422;26.092;2023-06-10T03:52:29;20.50;99.90
10447;DHT22;5271;44.422;26.092;2023-06-10T03:54:58;20.50;99.90
10447;DHT22;5271;44.422;26.092;2023-06-10T03:57:24;20.60;99.90
10447;DHT22;5271;44.422;26.092;2023-06-10T03:59:51;20.60;99.90
10447;DHT22;5271;44.422;26.092;2023-06-10T04:02:18;20.50;99.90
10447;DHT22;5271;44.422;26.092;2023-06-10T04:04:45;20.50;99.90
10447;DHT22;5271;44.422;26.092;2023-06-10T04:07:11;20.50;99.90
10447;DHT22;5271;44.422;26.092;2023-06-10T04:09:39;20.50;99.90
10447;DHT22;5271;44.422;26.092;2023-06-10T04:12:08;20.60;99.90
10447;DHT22;5271;44.422;26.092;2023-06-10T04:14:35;20.60;99.90
10447;DHT22;5271;44.422;26.092;2023-06-10T04:17:04;20.60;99.90
10447;DHT22;5271;44.422;26.092;2023-06-10T04:19:32;20.60;99.90
10447;DHT22;5271;44.422;26.092;2023-06-10T04:22:00;20.60;99.90
10447;DHT22;5271;44.422;26.092;2023-06-10T04:24:27;20.60;99.90
10447;DHT22;5271;44.422;26.092;2023-06-10T04:26:54;20.60;99.90
10447;DHT22;5271;44.422;26.092;2023-06-10T04:29:22;20.60;99.90
10447;DHT22;5271;44.422;26.092;2023-06-10T04:31:51;20.60;99.90
10447;DHT22;5271;44.422;26.092;2023-06-10T04:34:18;20.60;99.90
10447;DHT22;5271;44.422;26.092;2023-06-10T04:36:44;20.60;99.90
10447;DHT22;5271;44.422;26.092;2023-06-10T04:39:12;20.60;99.90
10447;DHT22;5271;44.422;26.092;2023-06-10T04:41:38;20.60;99.90
10447;DHT22;5271;44.422;26.092;2023-06-10T04:44:05;20.60;99.90
10447;DHT22;5271;44.422;26.092;2023-06-10T04:46:33;20.60;99.90
10447;DHT22;5271;44.422;26.092;2023-06-10T04:49:01;20.60;99.90
10447;DHT22;5271;44.422;26.092;2023-06-10T04:51:28;20.60;99.90
10447;DHT22;5271;44.422;26.092;2023-06-10T04:53:54;20.60;99.90
10447;DHT22;5271;44.422;26.092;2023-06-10T04:56:21;20.60;99.90
10447;DHT22;5271;44.422;26.092;2023-06-10T04:58:48;20.70;99.90
10447;DHT22;5271;44.422;26.092;2023-06-10T05:01:15;20.70;99.90
10447;DHT22;5271;44.422;26.092;2023-06-10T05:03:43;20.70;99.90
10447;DHT22;5271;44.422;26.092;2023-06-10T05:06:10;20.70;99.90
10447;DHT22;5271;44.422;26.092;2023-06-10T05:08:37;20.70;99.90
10447;DHT22;5271;44.422;26.092;2023-06-10T05:11:04;20.60;99.90
10447;DHT22;5271;44.422;26.092;2023-06-10T05:13:31;20.60;99.90
10447;DHT22;5271;44.422;26.092;2023-06-10T05:15:58;20.60;99.90
10447;DHT22;5271;44.422;26.092;2023-06-10T05:18:25;20.60;99.90
10447;DHT22;5271;44.422;26.092;2023-06-10T05:20:53;20.60;99.90
10447;DHT22;5271;44.422;26.092;2023-06-10T05:23:20;20.60;99.90
10447;DHT22;5271;44.422;26.092;2023-06-10T05:25:47;20.60;99.90
10447;DHT22;5271;44.422;26.092;2023-06-10T05:28:13;20.60;99.90
10447;DHT22;5271;44.422;26.092;2023-06-10T05:30:40;20.70;99.90
10447;DHT22;5271;44.422;26.092;2023-06-10T05:33:07;20.70;99.90
10447;DHT22;5271;44.422;26.092;2023-06-10T05:35:34;20.70;99.90
10447;DHT22;5271;44.422;26.092;2023-06-10T05:38:02;20.70;99.90
10447;DHT22;5271;44.422;26.092;2023-06-10T05:40:29;20.70;99.90
10447;DHT22;5271;44.422;26.092;2023-06-10T05:42:56;20.70;99.90
10447;DHT22;5271;44.422;26.092;2023-06-10T05:45:23;20.70;99.90
10447;DHT22;5271;44.422;26.092;2023-06-10T05:47:49;20.60;99.90
10447;DHT22;5271;44.422;26.092;2023-06-10T05:50:17;20.60;99.90
10447;DHT22;5271;44.422;26.092;2023-06-10T05:52:43;20.60;99.90
10447;DHT22;5271;44.422;26.092;2023-06-10T05:55:12;20.60;99.90
10447;DHT22;5271;44.422;26.092;2023-06-10T05:57:40;20.60;99.90
10447;DHT22;5271;44.422;26.092;2023-06-10T06:00:08;20.70;99.90
10447;DHT22;5271;44.422;26.092;2023-06-10T06:02:35;20.60;99.90
10447;DHT22;5271;44.422;26.092;2023-06-10T06:05:02;20.60;99.90
10447;DHT22;5271;44.422;26.092;2023-06-10T06:07:29;20.60;99.90
10447;DHT22;5271;44.422;26.092;2023-06-10T06:09:56;20.70;99.90
10447;DHT22;5271;44.422;26.092;2023-06-10T06:12:24;20.70;99.90
10447;DHT22;5271;44.422;26.092;2023-06-10T06:14:51;20.70;99.90
10447;DHT22;5271;44.422;26.092;2023-06-10T06:17:18;20.90;99.90
10447;DHT22;5271;44.422;26.092;2023-06-10T06:19:45;20.90;99.90
10447;DHT22;5271;44.422;26.092;2023-06-10T06:22:13;21.10;99.90
10447;DHT22;5271;44.422;26.092;2023-06-10T06:24:40;21.20;99.90
10447;DHT22;5271;44.422;26.092;2023-06-10T06:27:06;21.30;99.90
10447;DHT22;5271;44.422;26.092;2023-06-10T06:29:35;21.40;99.90
10447;DHT22;5271;44.422;26.092;2023-06-10T06:32:01;21.50;99.90
10447;DHT22;5271;44.422;26.092;2023-06-10T06:34:28;21.50;99.90
10447;DHT22;5271;44.422;26.092;2023-06-10T06:36:55;21.60;99.90
10447;DHT22;5271;44.422;26.092;2023-06-10T06:39:22;21.60;99.90
10447;DHT22;5271;44.422;26.092;2023-06-10T06:41:48;21.60;99.90
10447;DHT22;5271;44.422;26.092;2023-06-10T06:44:15;21.70;99.90
10447;DHT22;5271;44.422;26.092;2023-06-10T06:46:43;21.70;99.90
10447;DHT22;5271;44.422;26.092;2023-06-10T06:49:10;21.70;99.90
10447;DHT22;5271;44.422;26.092;2023-06-10T06:51:37;21.70;99.90
10447;DHT22;5271;44.422;26.092;2023-06-10T06:54:04;21.80;99.90
10447;DHT22;5271;44.422;26.092;2023-06-10T06:56:31;21.80;99.90
10447;DHT22;5271;44.422;26.092;2023-06-10T06:58:58;21.90;99.90
10447;DHT22;5271;44.422;26.092;2023-06-10T07:01:25;21.90;99.90
10447;DHT22;5271;44.422;26.092;2023-06-10T07:03:53;21.90;99.90
10447;DHT22;5271;44.422;26.092;2023-06-10T07:06:19;22.00;99.90
10447;DHT22;5271;44.422;26.092;2023-06-10T07:08:46;22.00;99.90
10447;DHT22;5271;44.422;26.092;2023-06-10T07:11:14;22.00;99.90
10447;DHT22;5271;44.422;26.092;2023-06-10T07:13:41;22.10;99.90
10447;DHT22;5271;44.422;26.092;2023-06-10T07:16:08;22.00;99.90
10447;DHT22;5271;44.422;26.092;2023-06-10T07:18:35;22.10;99.90
10447;DHT22;5271;44.422;26.092;2023-06-10T07:21:03;22.10;99.90
10447;DHT22;5271;44.422;26.092;2023-06-10T07:23:29;22.20;99.90
10447;DHT22;5271;44.422;26.092;2023-06-10T07:25:56;22.30;99.90
10447;DHT22;5271;44.422;26.092;2023-06-10T07:28:23;22.40;99.90
10447;DHT22;5271;44.422;26.092;2023-06-10T07:30:50;22.70;99.90
10447;DHT22;5271;44.422;26.092;2023-06-10T07:33:16;22.80;99.90
10447;DHT22;5271;44.422;26.092;2023-06-10T07:35:43;22.80;99.90
10447;DHT22;5271;44.422;26.092;2023-06-10T07:38:11;22.80;99.90
10447;DHT22;5271;44.422;26.092;2023-06-10T07:40:38;22.80;99.90
10447;DHT22;5271;44.422;26.092;2023-06-10T07:43:05;22.90;99.90
10447;DHT22;5271;44.422;26.092;2023-06-10T07:45:32;23.00;99.90
10447;DHT22;5271;44.422;26.092;2023-06-10T07:47:58;23.20;99.90
10447;DHT22;5271;44.422;26.092;2023-06-10T07:50:25;23.50;99.90
10447;DHT22;5271;44.422;26.092;2023-06-10T07:52:52;23.80;99.90
10447;DHT22;5271;44.422;26.092;2023-06-10T07:55:20;24.10;99.90
10447;DHT22;5271;44.422;26.092;2023-06-10T07:57:47;24.30;99.80
10447;DHT22;5271;44.422;26.092;2023-06-10T08:00:14;24.50;99.40
10447;DHT22;5271;44.422;26.092;2023-06-10T08:02:41;24.70;99.40
10447;DHT22;5271;44.422;26.092;2023-06-10T08:05:08;24.90;98.70
10447;DHT22;5271;44.422;26.092;2023-06-10T08:07:35;25.00;98.20
10447;DHT22;5271;44.422;26.092;2023-06-10T08:10:02;25.10;97.60
10447;DHT22;5271;44.422;26.092;2023-06-10T08:12:32;25.00;97.50
10447;DHT22;5271;44.422;26.092;2023-06-10T08:14:58;25.00;97.10
10447;DHT22;5271;44.422;26.092;2023-06-10T08:17:25;25.10;97.10
10447;DHT22;5271;44.422;26.092;2023-06-10T08:19:52;25.20;97.00
10447;DHT22;5271;44.422;26.092;2023-06-10T08:22:19;25.30;97.30
10447;DHT22;5271;44.422;26.092;2023-06-10T08:24:46;25.50;97.00
10447;DHT22;5271;44.422;26.092;2023-06-10T08:27:12;25.60;96.40
10447;DHT22;5271;44.422;26.092;2023-06-10T08:29:41;25.70;95.80
10447;DHT22;5271;44.422;26.092;2023-06-10T08:32:07;25.70;95.60
10447;DHT22;5271;44.422;26.092;2023-06-10T08:34:34;25.70;95.80
10447;DHT22;5271;44.422;26.092;2023-06-10T08:37:02;25.90;95.50
10447;DHT22;5271;44.422;26.092;2023-06-10T08:39:29;25.90;95.70
10447;DHT22;5271;44.422;26.092;2023-06-10T08:42:04;26.10;94.80
10447;DHT22;5271;44.422;26.092;2023-06-10T08:44:36;26.10;94.60
10447;DHT22;5271;44.422;26.092;2023-06-10T08:47:08;26.10;94.80
10447;DHT22;5271;44.422;26.092;2023-06-10T08:49:44;26.20;94.70
10447;DHT22;5271;44.422;26.092;2023-06-10T08:52:15;26.30;93.90
10447;DHT22;5271;44.422;26.092;2023-06-10T08:54:43;26.30;94.20
10447;DHT22;5271;44.422;26.092;2023-06-10T08:57:13;26.30;94.20
10447;DHT22;5271;44.422;26.092;2023-06-10T08:59:41;26.20;94.30
10447;DHT22;5271;44.422;26.092;2023-06-10T09:02:10;26.10;94.20
10447;DHT22;5271;44.422;26.092;2023-06-10T09:04:37;26.10;94.30
10447;DHT22;5271;44.422;26.092;2023-06-10T09:07:05;26.20;94.30
10447;DHT22;5271;44.422;26.092;2023-06-10T09:09:34;26.20;94.40
10447;DHT22;5271;44.422;26.092;2023-06-10T09:12:02;26.20;94.20
10447;DHT22;5271;44.422;26.092;2023-06-10T09:14:29;26.40;93.70
10447;DHT22;5271;44.422;26.092;2023-06-10T09:16:56;26.50;93.40
10447;DHT22;5271;44.422;26.092;2023-06-10T09:19:25;26.70;92.80
10447;DHT22;5271;44.422;26.092;2023-06-10T09:21:53;26.90;92.40
10447;DHT22;5271;44.422;26.092;2023-06-10T09:24:22;26.90;92.10
10447;DHT22;5271;44.422;26.092;2023-06-10T09:26:49;27.00;91.90
10447;DHT22;5271;44.422;26.092;2023-06-10T09:29:17;27.00;91.60
10447;DHT22;5271;44.422;26.092;2023-06-10T09:31:44;27.10;91.10
10447;DHT22;5271;44.422;26.092;2023-06-10T09:34:12;27.00;91.40
10447;DHT22;5271;44.422;26.092;2023-06-10T09:36:41;27.10;91.70
10447;DHT22;5271;44.422;26.092;2023-06-10T09:39:14;27.10;90.90
10447;DHT22;5271;44.422;26.092;2023-06-10T09:41:42;27.10;91.20
10447;DHT22;5271;44.422;26.092;2023-06-10T09:44:11;27.00;91.60
10447;DHT22;5271;44.422;26.092;2023-06-10T09:46:38;27.00;90.90
10447;DHT22;5271;44.422;26.092;2023-06-10T09:49:05;26.80;91.20
10447;DHT22;5271;44.422;26.092;2023-06-10T09:51:32;26.80;90.70
10447;DHT22;5271;44.422;26.092;2023-06-10T09:54:03;26.80;90.60
10447;DHT22;5271;44.422;26.092;2023-06-10T09:56:33;26.80;90.80
10447;DHT22;5271;44.422;26.092;2023-06-10T09:59:01;27.00;91.00
10447;DHT22;5271;44.422;26.092;2023-06-10T10:01:30;27.10;91.00
10447;DHT22;5271;44.422;26.092;2023-06-10T10:03:59;27.20;90.50
10447;DHT22;5271;44.422;26.092;2023-06-10T10:06:26;27.10;90.40
10447;DHT22;5271;44.422;26.092;2023-06-10T10:08:54;27.00;90.50
10447;DHT22;5271;44.422;26.092;2023-06-10T10:11:23;26.90;91.00
10447;DHT22;5271;44.422;26.092;2023-06-10T10:13:52;27.00;90.70
10447;DHT22;5271;44.422;26.092;2023-06-10T10:16:20;27.00;90.60
10447;DHT22;5271;44.422;26.092;2023-06-10T10:18:52;27.10;90.90
10447;DHT22;5271;44.422;26.092;2023-06-10T10:21:23;27.20;90.70
10447;DHT22;5271;44.422;26.092;2023-06-10T10:23:53;27.10;90.40
10447;DHT22;5271;44.422;26.092;2023-06-10T10:26:26;27.10;90.50
10447;DHT22;5271;44.422;26.092;2023-06-10T10:29:02;27.00;90.30
10447;DHT22;5271;44.422;26.092;2023-06-10T10:31:32;27.00;90.20
10447;DHT22;5271;44.422;26.092;2023-06-10T10:34:04;27.10;90.00
10447;DHT22;5271;44.422;26.092;2023-06-10T10:36:32;27.10;89.90
10447;DHT22;5271;44.422;26.092;2023-06-10T10:38:59;27.10;90.10
10447;DHT22;5271;44.422;26.092;2023-06-10T10:41:30;27.00;90.20
10447;DHT22;5271;44.422;26.092;2023-06-10T10:43:58;26.90;90.00
10447;DHT22;5271;44.422;26.092;2023-06-10T10:46:25;26.90;90.10
10447;DHT22;5271;44.422;26.092;2023-06-10T10:48:53;26.80;89.50
10447;DHT22;5271;44.422;26.092;2023-06-10T10:51:22;26.70;90.00
10447;DHT22;5271;44.422;26.092;2023-06-10T10:54:12;26.60;90.00
10447;DHT22;5271;44.422;26.092;2023-06-10T10:57:10;26.50;90.10
10447;DHT22;5271;44.422;26.092;2023-06-10T10:59:51;26.40;90.50
10447;DHT22;5271;44.422;26.092;2023-06-10T11:02:32;26.50;90.70
10447;DHT22;5271;44.422;26.092;2023-06-10T11:05:01;26.40;90.50
10447;DHT22;5271;44.422;26.092;2023-06-10T11:07:29;26.40;90.60
10447;DHT22;5271;44.422;26.092;2023-06-10T11:10:00;26.40;90.70
10447;DHT22;5271;44.422;26.092;2023-06-10T11:12:41;26.50;90.50
10447;DHT22;5271;44.422;26.092;2023-06-10T11:15:08;26.60;90.30
10447;DHT22;5271;44.422;26.092;2023-06-10T11:17:35;26.70;90.00
10447;DHT22;5271;44.422;26.092;2023-06-10T11:20:02;26.90;90.00
10447;DHT22;5271;44.422;26.092;2023-06-10T11:22:29;27.00;90.00
10447;DHT22;5271;44.422;26.092;2023-06-10T11:24:55;27.10;89.70
10447;DHT22;5271;44.422;26.092;2023-06-10T11:27:24;27.30;89.00
10447;DHT22;5271;44.422;26.092;2023-06-10T11:30:18;27.50;88.10
10447;DHT22;5271;44.422;26.092;2023-06-10T11:32:45;27.60;88.40
10447;DHT22;5271;44.422;26.092;2023-06-10T11:35:17;27.80;87.70
10447;DHT22;5271;44.422;26.092;2023-06-10T11:37:45;27.80;87.70
10447;DHT22;5271;44.422;26.092;2023-06-10T11:40:12;27.70;87.10
10447;DHT22;5271;44.422;26.092;2023-06-10T11:42:40;27.60;87.20
10447;DHT22;5271;44.422;26.092;2023-06-10T11:45:09;27.60;87.30
10447;DHT22;5271;44.422;26.092;2023-06-10T11:47:36;27.40;87.20
10447;DHT22;5271;44.422;26.092;2023-06-10T11:50:03;27.30;87.40
10447;DHT22;5271;44.422;26.092;2023-06-10T11:52:31;27.20;87.40
10447;DHT22;5271;44.422;26.092;2023-06-10T11:54:59;27.20;87.70
10447;DHT22;5271;44.422;26.092;2023-06-10T11:57:26;27.10;88.00
10447;DHT22;5271;44.422;26.092;2023-06-10T11:59:52;27.00;91.40
10447;DHT22;5271;44.422;26.092;2023-06-10T12:02:21;27.00;93.50
10447;DHT22;5271;44.422;26.092;2023-06-10T12:04:47;26.90;94.00
10447;DHT22;5271;44.422;26.092;2023-06-10T12:07:18;26.70;94.50
10447;DHT22;5271;44.422;26.092;2023-06-10T12:09:46;26.50;95.20
10447;DHT22;5271;44.422;26.092;2023-06-10T12:12:13;26.40;95.20
10447;DHT22;5271;44.422;26.092;2023-06-10T12:14:54;26.20;95.80
10447;DHT22;5271;44.422;26.092;2023-06-10T12:17:34;26.10;95.90
10447;DHT22;5271;44.422;26.092;2023-06-10T12:20:04;25.90;95.60
10447;DHT22;5271;44.422;26.092;2023-06-10T12:22:36;25.70;95.90
10447;DHT22;5271;44.422;26.092;2023-06-10T12:25:04;25.60;95.80
10447;DHT22;5271;44.422;26.092;2023-06-10T12:27:32;25.50;95.60
10447;DHT22;5271;44.422;26.092;2023-06-10T12:30:00;25.50;95.70
10447;DHT22;5271;44.422;26.092;2023-06-10T12:32:40;25.40;95.50
10447;DHT22;5271;44.422;26.092;2023-06-10T12:35:09;25.30;95.20
10447;DHT22;5271;44.422;26.092;2023-06-10T12:37:36;25.20;95.60
10447;DHT22;5271;44.422;26.092;2023-06-10T12:40:05;25.20;96.30
10447;DHT22;5271;44.422;26.092;2023-06-10T12:42:34;25.20;96.10
10447;DHT22;5271;44.422;26.092;2023-06-10T12:45:03;25.20;96.40
10447;DHT22;5271;44.422;26.092;2023-06-10T12:47:33;25.30;96.20
10447;DHT22;5271;44.422;26.092;2023-06-10T12:50:02;25.40;96.40
10447;DHT22;5271;44.422;26.092;2023-06-10T12:52:29;25.40;96.00
10447;DHT22;5271;44.422;26.092;2023-06-10T12:54:57;25.40;96.10
10447;DHT22;5271;44.422;26.092;2023-06-10T12:57:24;25.40;95.90
10447;DHT22;5271;44.422;26.092;2023-06-10T12:59:51;25.40;95.70
10447;DHT22;5271;44.422;26.092;2023-06-10T13:02:18;25.40;95.80
10447;DHT22;5271;44.422;26.092;2023-06-10T13:04:46;25.30;96.00
10447;DHT22;5271;44.422;26.092;2023-06-10T13:07:15;25.20;96.10
10447;DHT22;5271;44.422;26.092;2023-06-10T13:09:42;25.20;96.10
10447;DHT22;5271;44.422;26.092;2023-06-10T13:12:10;25.20;96.10
10447;DHT22;5271;44.422;26.092;2023-06-10T13:14:37;25.20;96.30
10447;DHT22;5271;44.422;26.092;2023-06-10T13:17:05;25.20;96.10
10447;DHT22;5271;44.422;26.092;2023-06-10T13:19:32;25.30;95.80
10447;DHT22;5271;44.422;26.092;2023-06-10T13:21:59;25.20;95.90
10447;DHT22;5271;44.422;26.092;2023-06-10T13:24:27;25.30;95.60
10447;DHT22;5271;44.422;26.092;2023-06-10T13:26:54;25.30;95.20
10447;DHT22;5271;44.422;26.092;2023-06-10T13:29:21;25.20;95.40
10447;DHT22;5271;44.422;26.092;2023-06-10T13:31:48;25.30;95.50
10447;DHT22;5271;44.422;26.092;2023-06-10T13:34:15;25.30;95.60
10447;DHT22;5271;44.422;26.092;2023-06-10T13:36:42;25.30;95.70
10447;DHT22;5271;44.422;26.092;2023-06-10T13:39:09;25.40;95.30
10447;DHT22;5271;44.422;26.092;2023-06-10T13:41:37;25.40;95.20
10447;DHT22;5271;44.422;26.092;2023-06-10T13:44:04;25.40;95.30
10447;DHT22;5271;44.422;26.092;2023-06-10T13:46:30;25.50;95.00
10447;DHT22;5271;44.422;26.092;2023-06-10T13:48:57;25.60;94.70
10447;DHT22;5271;44.422;26.092;2023-06-10T13:51:24;25.60;94.40
10447;DHT22;5271;44.422;26.092;2023-06-10T13:53:51;25.60;94.20
10447;DHT22;5271;44.422;26.092;2023-06-10T13:56:18;25.70;94.30
10447;DHT22;5271;44.422;26.092;2023-06-10T13:58:46;25.70;94.30
10447;DHT22;5271;44.422;26.092;2023-06-10T14:01:13;25.70;93.90
10447;DHT22;5271;44.422;26.092;2023-06-10T14:03:39;25.80;94.00
10447;DHT22;5271;44.422;26.092;2023-06-10T14:06:06;25.80;94.50
10447;DHT22;5271;44.422;26.092;2023-06-10T14:08:33;25.80;94.20
10447;DHT22;5271;44.422;26.092;2023-06-10T14:11:00;25.90;93.80
10447;DHT22;5271;44.422;26.092;2023-06-10T14:13:27;26.00;93.80
10447;DHT22;5271;44.422;26.092;2023-06-10T14:15:56;26.00;94.00
10447;DHT22;5271;44.422;26.092;2023-06-10T14:18:23;26.20;93.80
10447;DHT22;5271;44.422;26.092;2023-06-10T14:20:50;26.20;93.70
10447;DHT22;5271;44.422;26.092;2023-06-10T14:23:16;26.20;93.20
10447;DHT22;5271;44.422;26.092;2023-06-10T14:25:43;26.30;93.30
10447;DHT22;5271;44.422;26.092;2023-06-10T14:28:10;26.40;93.00
10447;DHT22;5271;44.422;26.092;2023-06-10T14:30:37;26.60;92.60
10447;DHT22;5271;44.422;26.092;2023-06-10T14:33:05;26.60;92.50
10447;DHT22;5271;44.422;26.092;2023-06-10T14:35:32;26.70;91.90
10447;DHT22;5271;44.422;26.092;2023-06-10T14:37:59;26.80;92.30
10447;DHT22;5271;44.422;26.092;2023-06-10T14:40:25;26.80;92.40
10447;DHT22;5271;44.422;26.092;2023-06-10T14:42:54;26.90;91.90
10447;DHT22;5271;44.422;26.092;2023-06-10T14:45:21;26.90;91.80
10447;DHT22;5271;44.422;26.092;2023-06-10T14:47:48;26.90;91.40
10447;DHT22;5271;44.422;26.092;2023-06-10T14:50:16;26.90;91.50
10447;DHT22;5271;44.422;26.092;2023-06-10T14:52:43;26.90;91.20
10447;DHT22;5271;44.422;26.092;2023-06-10T14:55:09;26.90;91.10
10447;DHT22;5271;44.422;26.092;2023-06-10T14:57:36;27.00;91.20
10447;DHT22;5271;44.422;26.092;2023-06-10T15:00:04;27.00;91.10
10447;DHT22;5271;44.422;26.092;2023-06-10T15:02:31;27.10;90.60
10447;DHT22;5271;44.422;26.092;2023-06-10T15:04:57;27.00;90.60
10447;DHT22;5271;44.422;26.092;2023-06-10T15:07:26;27.10;90.50
10447;DHT22;5271;44.422;26.092;2023-06-10T15:09:52;27.10;90.20
10447;DHT22;5271;44.422;26.092;2023-06-10T15:12:19;27.20;90.20
10447;DHT22;5271;44.422;26.092;2023-06-10T15:14:46;27.20;89.30
10447;DHT22;5271;44.422;26.092;2023-06-10T15:17:13;27.30;89.60
10447;DHT22;5271;44.422;26.092;2023-06-10T15:19:40;27.30;89.20
10447;DHT22;5271;44.422;26.092;2023-06-10T15:22:07;27.40;88.10
10447;DHT22;5271;44.422;26.092;2023-06-10T15:24:35;27.50;87.80
10447;DHT22;5271;44.422;26.092;2023-06-10T15:27:02;27.50;87.10
10447;DHT22;5271;44.422;26.092;2023-06-10T15:29:28;27.60;86.20
10447;DHT22;5271;44.422;26.092;2023-06-10T15:31:55;27.60;85.70
10447;DHT22;5271;44.422;26.092;2023-06-10T15:34:22;27.60;86.00